Time;durP1;ratioP1;P1;durP2;ratioP2;P2;SDS_P1;SDS_P2;PMS_P1;PMS_P2;Temp;Humidity;BMP_temperature;BMP_pressure;BME280_temperature;BME280_humidity;BME280_pressure;Samples;Min_cycle;Max_cycle;Signal;HPM_P1;HPM_P2
2023/04/22 00:01:53;;;;;;;;;11.60;11.60;;;;;;;;5225193;28;8773;-68
2023/04/22 00:04:24;;;;;;;;;12.20;12.20;;;;;;;;5224010;28;8790;-69
2023/04/22 00:06:55;;;;;;;;;8.40;8.40;;;;;;;;5224247;28;8798;-69
2023/04/22 00:09:26;;;;;;;;;3.60;3.20;;;;;;;;5208961;28;8786;-68
2023/04/22 00:11:58;;;;;;;;;14.00;14.00;;;;;;;;5227995;28;8802;-68
2023/04/22 00:14:29;;;;;;;;;12.00;12.00;;;;;;;;5211045;28;8805;-69
2023/04/22 00:17:00;;;;;;;;;17.60;17.60;;;;;;;;5244868;28;8819;-68
2023/04/22 00:19:32;;;;;;;;;12.80;12.80;;;;;;;;5246458;28;9506;-68
2023/04/22 00:22:03;;;;;;;;;34.00;34.00;;;;;;;;5249515;28;8774;-68
2023/04/22 00:24:35;;;;;;;;;30.40;29.00;;;;;;;;5231651;28;8783;-68
2023/04/22 00:27:06;;;;;;;;;19.40;19.40;;;;;;;;5231710;28;8795;-68
2023/04/22 00:29:38;;;;;;;;;13.20;13.20;;;;;;;;5248550;28;8798;-68
2023/04/22 00:32:27;;;;;;;;;12.80;12.80;;;;;;;;5248597;28;8842;-68
2023/04/22 00:34:58;;;;;;;;;15.60;15.40;;;;;;;;5226073;28;8830;-69
2023/04/22 00:37:29;;;;;;;;;11.20;11.20;;;;;;;;5210259;28;8801;-68
2023/04/22 00:40:01;;;;;;;;;7.20;7.20;;;;;;;;5210461;28;8770;-68
2023/04/22 00:42:36;;;;;;;;;2.80;2.80;;;;;;;;5243619;28;8785;-68
2023/04/22 00:45:09;;;;;;;;;14.60;14.60;;;;;;;;5211647;28;8789;-67
2023/04/22 00:47:40;;;;;;;;;19.40;17.80;;;;;;;;5210341;28;8825;-67
2023/04/22 00:50:11;;;;;;;;;11.75;11.75;;;;;;;;5210661;28;8770;-68
2023/04/22 00:52:43;;;;;;;;;16.20;16.20;;;;;;;;5228161;28;9014;-68
2023/04/22 00:55:14;;;;;;;;;18.60;18.60;;;;;;;;5227890;28;8794;-67
2023/04/22 00:57:48;;;;;;;;;18.40;18.40;;;;;;;;5210385;28;8770;-68
2023/04/22 01:00:22;;;;;;;;;19.20;18.20;;;;;;;;5227928;28;9504;-67
2023/04/22 01:02:54;;;;;;;;;16.20;16.20;;;;;;;;5227892;28;8785;-68
2023/04/22 01:05:26;;;;;;;;;25.60;25.60;;;;;;;;5226712;28;8777;-68
2023/04/22 01:07:57;;;;;;;;;24.80;23.40;;;;;;;;5211154;28;8829;-68
2023/04/22 01:10:28;;;;;;;;;30.20;30.20;;;;;;;;5226520;28;8777;-67
2023/04/22 01:12:59;;;;;;;;;36.40;36.00;;;;;;;;5229871;28;8768;-67
2023/04/22 01:15:31;;;;;;;;;44.60;40.80;;;;;;;;5247221;28;9557;-68
2023/04/22 01:18:03;;;;;;;;;34.20;34.20;;;;;;;;5248318;28;8893;-68
2023/04/22 01:20:34;;;;;;;;;33.00;32.80;;;;;;;;5229489;28;8928;-68
2023/04/22 01:23:08;;;;;;;;;38.80;38.00;;;;;;;;5230325;28;8861;-68
2023/04/22 01:25:40;;;;;;;;;30.60;28.80;;;;;;;;5247661;28;8767;-68
2023/04/22 01:28:11;;;;;;;;;12.20;12.20;;;;;;;;5229694;28;8811;-68
2023/04/22 01:30:42;;;;;;;;;28.20;24.20;;;;;;;;5213536;28;8791;-68
2023/04/22 01:33:32;;;;;;;;;17.60;17.60;;;;;;;;5225244;28;8786;-68
2023/04/22 01:36:04;;;;;;;;;15.80;15.80;;;;;;;;5225931;28;8822;-68
2023/04/22 01:38:35;;;;;;;;;7.00;7.00;;;;;;;;5209626;28;8802;-68
2023/04/22 01:41:08;;;;;;;;;6.80;6.80;;;;;;;;5209554;28;8791;-68
2023/04/22 01:43:39;;;;;;;;;10.20;10.20;;;;;;;;5225922;28;9449;-68
2023/04/22 01:46:11;;;;;;;;;9.40;9.40;;;;;;;;5209269;28;8857;-68
2023/04/22 01:49:01;;;;;;;;;7.60;7.60;;;;;;;;5228258;28;8848;-68
2023/04/22 01:51:33;;;;;;;;;8.00;8.00;;;;;;;;5225742;28;8797;-68
2023/04/22 01:54:04;;;;;;;;;10.80;10.80;;;;;;;;5209490;28;8802;-68
2023/04/22 01:56:37;;;;;;;;;7.20;7.20;;;;;;;;5209182;28;8801;-68
2023/04/22 01:59:08;;;;;;;;;10.80;10.80;;;;;;;;5209523;28;8851;-68
2023/04/22 02:01:41;;;;;;;;;6.60;6.60;;;;;;;;5237983;28;8803;-68
2023/04/22 02:04:13;;;;;;;;;0.40;0.00;;;;;;;;5213225;28;8783;-68
2023/04/22 02:06:45;;;;;;;;;6.00;6.00;;;;;;;;5229786;28;8811;-68
2023/04/22 02:09:34;;;;;;;;;5.00;5.00;;;;;;;;5232229;28;8763;-68
2023/04/22 02:12:06;;;;;;;;;5.00;5.00;;;;;;;;5238448;28;8790;-68
2023/04/22 02:14:37;;;;;;;;;7.00;7.00;;;;;;;;5226605;28;9563;-68
2023/04/22 02:17:08;;;;;;;;;3.60;3.60;;;;;;;;5225350;28;9516;-68
2023/04/22 02:19:40;;;;;;;;;14.00;14.00;;;;;;;;5226451;28;8794;-68
2023/04/22 02:22:11;;;;;;;;;19.00;14.80;;;;;;;;5208349;28;8958;-67
2023/04/22 02:25:02;;;;;;;;;8.80;8.00;;;;;;;;5232062;28;8873;-67
2023/04/22 02:27:51;;;;;;;;;2.00;2.00;;;;;;;;5224273;28;8818;-68
2023/04/22 02:30:23;;;;;;;;;0.00;0.00;;;;;;;;5246970;28;8795;-68
2023/04/22 02:32:54;;;;;;;;;2.00;2.00;;;;;;;;5225802;28;9584;-68
2023/04/22 02:35:26;;;;;;;;;1.40;1.40;;;;;;;;5240612;28;8823;-69
2023/04/22 02:38:15;;;;;;;;;1.20;1.20;;;;;;;;5241797;28;9514;-69
2023/04/22 02:40:46;;;;;;;;;1.00;1.00;;;;;;;;5243839;28;8791;-69
2023/04/22 02:43:19;;;;;;;;;0.00;0.00;;;;;;;;5227515;28;8926;-70
2023/04/22 02:45:50;;;;;;;;;1.00;1.00;;;;;;;;5222116;28;8928;-69
2023/04/22 02:48:39;;;;;;;;;1.00;1.00;;;;;;;;5243248;28;8826;-69
2023/04/22 02:51:11;;;;;;;;;2.00;2.00;;;;;;;;5223980;28;8811;-68
2023/04/22 02:53:42;;;;;;;;;0.00;0.00;;;;;;;;5226146;28;8799;-68
2023/04/22 02:56:13;;;;;;;;;2.00;2.00;;;;;;;;5208278;28;8802;-69
2023/04/22 02:59:03;;;;;;;;;1.40;1.40;;;;;;;;5242703;28;8900;-68
2023/04/22 03:01:34;;;;;;;;;6.60;6.60;;;;;;;;5242613;28;8811;-70
2023/04/22 03:04:07;;;;;;;;;2.60;2.60;;;;;;;;5225965;28;9514;-69
2023/04/22 03:06:39;;;;;;;;;1.40;1.40;;;;;;;;5237869;28;8849;-69
2023/04/22 03:09:28;;;;;;;;;0.00;0.00;;;;;;;;5224011;28;8952;-68
2023/04/22 03:12:17;;;;;;;;;0.40;0.40;;;;;;;;5226917;28;8911;-68
2023/04/22 03:14:49;;;;;;;;;0.00;0.00;;;;;;;;5207747;28;9521;-68
2023/04/22 03:17:21;;;;;;;;;0.00;0.00;;;;;;;;5232766;28;9584;-68
2023/04/22 03:19:52;;;;;;;;;11.80;10.60;;;;;;;;5228348;28;8776;-68
2023/04/22 03:22:25;;;;;;;;;0.20;0.20;;;;;;;;5224298;28;8856;-68
2023/04/22 03:25:00;;;;;;;;;0.00;0.00;;;;;;;;5208267;28;8770;-67
2023/04/22 03:27:51;;;;;;;;;0.40;0.40;;;;;;;;5226306;28;9552;-68
2023/04/22 03:30:22;;;;;;;;;0.00;0.00;;;;;;;;5224599;28;8789;-70
2023/04/22 03:32:53;;;;;;;;;0.40;0.40;;;;;;;;5220299;28;8777;-68
2023/04/22 03:35:42;;;;;;;;;0.00;0.00;;;;;;;;5240560;28;9583;-69
2023/04/22 03:38:31;;;;;;;;;5.00;4.00;;;;;;;;5223806;28;8827;-69
2023/04/22 03:41:03;;;;;;;;;8.00;6.60;;;;;;;;5223951;28;8782;-69
2023/04/22 03:43:52;;;;;;;;;10.00;10.00;;;;;;;;5208365;28;8774;-69
2023/04/22 03:46:24;;;;;;;;;3.00;3.00;;;;;;;;5211797;28;9535;-69
2023/04/22 03:49:14;;;;;;;;;5.80;5.80;;;;;;;;5225556;28;8795;-78
2023/04/22 03:51:47;;;;;;;;;3.00;3.00;;;;;;;;5245618;28;8810;-74
2023/04/22 03:54:37;;;;;;;;;1.40;1.40;;;;;;;;5233603;28;8913;-74
2023/04/22 03:57:09;;;;;;;;;2.20;2.20;;;;;;;;5223326;28;8810;-74
2023/04/22 03:59:41;;;;;;;;;1.00;1.00;;;;;;;;5223158;28;9652;-74
2023/04/22 04:02:32;;;;;;;;;6.40;6.40;;;;;;;;5212727;28;8832;-75
2023/04/22 04:05:05;;;;;;;;;2.00;2.00;;;;;;;;5227309;28;8858;-72
2023/04/22 04:07:36;;;;;;;;;9.20;9.20;;;;;;;;5226706;28;8955;-74
2023/04/22 04:10:08;;;;;;;;;2.00;2.00;;;;;;;;5194099;28;8773;-73
2023/04/22 04:12:40;;;;;;;;;3.00;3.00;;;;;;;;5210697;28;8863;-72
2023/04/22 04:15:11;;;;;;;;;2.00;2.00;;;;;;;;5226872;28;8801;-74
2023/04/22 04:17:44;;;;;;;;;1.20;1.20;;;;;;;;5226790;28;8813;-75
2023/04/22 04:20:17;;;;;;;;;2.20;2.20;;;;;;;;5210515;28;8805;-73
2023/04/22 04:22:50;;;;;;;;;1.00;1.00;;;;;;;;5227333;28;9579;-76
2023/04/22 04:25:22;;;;;;;;;0.00;0.00;;;;;;;;5210710;28;8936;-74
2023/04/22 04:27:54;;;;;;;;;0.00;0.00;;;;;;;;5239410;28;8823;-74
2023/04/22 04:30:26;;;;;;;;;1.60;1.00;;;;;;;;5229479;28;8818;-74
2023/04/22 04:33:05;;;;;;;;;1.00;1.00;;;;;;;;5210235;28;8891;-73
2023/04/22 04:35:38;;;;;;;;;80.20;65.40;;;;;;;;5208621;28;8829;-75
2023/04/22 04:38:11;;;;;;;;;0.20;0.20;;;;;;;;5208575;28;8864;-74
2023/04/22 04:40:44;;;;;;;;;0.40;0.40;;;;;;;;5192313;28;8789;-74
2023/04/22 04:43:24;;;;;;;;;0.00;0.00;;;;;;;;5241976;28;8801;-74
2023/04/22 04:46:07;;;;;;;;;1.20;1.20;;;;;;;;5224592;28;8837;-75
2023/04/22 04:48:42;;;;;;;;;0.00;0.00;;;;;;;;5209008;28;8825;-81
2023/04/22 04:51:15;;;;;;;;;0.00;0.00;;;;;;;;5220763;28;8846;-78
2023/04/22 04:53:53;;;;;;;;;2.00;2.00;;;;;;;;5209794;28;8828;-78
2023/04/22 04:56:26;;;;;;;;;6.00;6.00;;;;;;;;5208310;28;8805;-79
2023/04/22 04:58:58;;;;;;;;;3.80;3.80;;;;;;;;5225275;28;8825;-74
2023/04/22 05:01:32;;;;;;;;;6.00;6.00;;;;;;;;5225058;28;8876;-74
2023/04/22 05:04:08;;;;;;;;;36.00;33.60;;;;;;;;5208168;28;8793;-76
2023/04/22 05:06:43;;;;;;;;;4.80;4.80;;;;;;;;5229443;28;9562;-70
2023/04/22 05:09:36;;;;;;;;;5.40;5.00;;;;;;;;5245715;28;8855;-70
2023/04/22 05:12:08;;;;;;;;;2.00;0.80;;;;;;;;5207735;28;8821;-70
2023/04/22 05:14:40;;;;;;;;;0.00;0.00;;;;;;;;5208227;28;8801;-69
2023/04/22 05:17:14;;;;;;;;;1.00;1.00;;;;;;;;5207946;28;8833;-70
2023/04/22 05:19:45;;;;;;;;;1.00;1.00;;;;;;;;5226303;28;8835;-69
2023/04/22 05:22:17;;;;;;;;;6.20;6.20;;;;;;;;5226790;28;9542;-69
2023/04/22 05:25:06;;;;;;;;;0.40;0.40;;;;;;;;5222961;28;8774;-70
2023/04/22 05:27:39;;;;;;;;;5.60;5.60;;;;;;;;5245184;28;8807;-68
2023/04/22 05:30:28;;;;;;;;;1.40;1.40;;;;;;;;5235567;28;8790;-69
2023/04/22 05:33:00;;;;;;;;;0.00;0.00;;;;;;;;5216901;28;8810;-68
2023/04/22 05:35:50;;;;;;;;;0.00;0.00;;;;;;;;5226167;28;8809;-69
2023/04/22 05:38:39;;;;;;;;;0.00;0.00;;;;;;;;5212219;28;8795;-68
2023/04/22 05:41:11;;;;;;;;;0.00;0.00;;;;;;;;5225924;28;8804;-76
2023/04/22 05:44:02;;;;;;;;;4.40;4.40;;;;;;;;5211834;28;8813;-76
2023/04/22 05:46:35;;;;;;;;;1.00;1.00;;;;;;;;5209755;28;8818;-76
2023/04/22 05:49:07;;;;;;;;;43.80;38.00;;;;;;;;5226029;28;8789;-76
2023/04/22 05:51:58;;;;;;;;;28.60;27.80;;;;;;;;5211605;28;9525;-75
2023/04/22 05:54:37;;;;;;;;;2.80;2.80;;;;;;;;5210562;28;8781;-76
2023/04/22 05:57:10;;;;;;;;;13.00;13.00;;;;;;;;5209205;28;8817;-76
2023/04/22 05:59:42;;;;;;;;;17.40;17.20;;;;;;;;5225802;28;8798;-76
2023/04/22 06:02:37;;;;;;;;;16.00;15.00;;;;;;;;5211942;28;8774;-76
2023/04/22 06:05:10;;;;;;;;;6.00;6.00;;;;;;;;5226521;28;8782;-76
2023/04/22 06:07:42;;;;;;;;;1.00;1.00;;;;;;;;5224738;28;9719;-76
2023/04/22 06:10:33;;;;;;;;;1.00;1.00;;;;;;;;5211448;28;8922;-76
2023/04/22 06:13:06;;;;;;;;;6.40;6.40;;;;;;;;5225589;28;9484;-76
2023/04/22 06:15:57;;;;;;;;;2.00;2.00;;;;;;;;5211207;28;8802;-76
2023/04/22 06:18:31;;;;;;;;;1.00;1.00;;;;;;;;5209044;28;8801;-76
2023/04/22 06:21:21;;;;;;;;;3.60;3.60;;;;;;;;5211085;28;8798;-76
2023/04/22 06:23:55;;;;;;;;;1.00;1.00;;;;;;;;5225480;28;8800;-76
2023/04/22 06:26:26;;;;;;;;;0.00;0.00;;;;;;;;5208547;28;8813;-76
2023/04/22 06:28:59;;;;;;;;;0.00;0.00;;;;;;;;5210304;28;8790;-76
2023/04/22 06:31:32;;;;;;;;;4.40;4.40;;;;;;;;5208753;28;8922;-76
2023/04/22 06:34:04;;;;;;;;;20.20;20.20;;;;;;;;5208043;28;8805;-77
2023/04/22 06:36:37;;;;;;;;;9.00;9.00;;;;;;;;5208204;28;8801;-76
2023/04/22 06:39:11;;;;;;;;;2.00;2.00;;;;;;;;5225250;28;9540;-76
2023/04/22 06:41:54;;;;;;;;;0.00;0.00;;;;;;;;5224706;28;8907;-76
2023/04/22 06:44:47;;;;;;;;;0.00;0.00;;;;;;;;5211467;28;8829;-76
2023/04/22 06:47:42;;;;;;;;;2.00;2.00;;;;;;;;5211404;28;8836;-77
2023/04/22 06:50:19;;;;;;;;;1.75;1.75;;;;;;;;5225601;28;8812;-76
2023/04/22 06:53:02;;;;;;;;;4.75;4.75;;;;;;;;5193404;28;8798;-76
2023/04/22 06:55:35;;;;;;;;;4.33;4.33;;;;;;;;5208102;28;8789;-76
2023/04/22 06:58:07;;;;;;;;;8.80;8.40;;;;;;;;5224885;28;8793;-78
2023/04/22 07:00:39;;;;;;;;;1.00;1.00;;;;;;;;5224538;28;9537;-78
2023/04/22 07:03:12;;;;;;;;;0.00;0.00;;;;;;;;5208532;28;8840;-78
2023/04/22 07:05:43;;;;;;;;;15.40;14.60;;;;;;;;5191618;28;8774;-70
2023/04/22 07:08:14;;;;;;;;;9.75;8.50;;;;;;;;5207694;28;8821;-69
2023/04/22 07:11:04;;;;;;;;;0.50;0.50;;;;;;;;5210378;28;8789;-70
2023/04/22 07:13:41;;;;;;;;;0.00;0.00;;;;;;;;5207982;28;8929;-69
2023/04/22 07:16:12;;;;;;;;;1.00;1.00;;;;;;;;5225692;28;8949;-69
2023/04/22 07:18:42;;;;;;;;;0.50;0.50;;;;;;;;5223821;28;9473;-69
2023/04/22 07:21:13;;;;;;;;;0.00;0.00;;;;;;;;5207786;28;8789;-70
2023/04/22 07:23:44;;;;;;;;;0.00;0.00;;;;;;;;5207639;28;9723;-69
2023/04/22 07:26:15;;;;;;;;;36.00;34.00;;;;;;;;5207774;28;8817;-69
2023/04/22 07:28:46;;;;;;;;;0.50;0.50;;;;;;;;5207783;28;8778;-69
2023/04/22 07:31:17;;;;;;;;;6.00;6.00;;;;;;;;5224213;28;8786;-69
2023/04/22 07:33:48;;;;;;;;;2.50;2.50;;;;;;;;5224062;28;8798;-69
2023/04/22 07:36:19;;;;;;;;;1.00;1.00;;;;;;;;5223783;28;8824;-69
2023/04/22 07:38:51;;;;;;;;;0.50;0.50;;;;;;;;5224213;28;8800;-69
2023/04/22 07:41:40;;;;;;;;;1.25;1.25;;;;;;;;5225393;28;8777;-69
2023/04/22 07:44:15;;;;;;;;;4.00;4.00;;;;;;;;5224078;28;8778;-70
2023/04/22 07:46:47;;;;;;;;;3.50;3.50;;;;;;;;5207817;28;8806;-70
2023/04/22 07:49:18;;;;;;;;;21.60;21.60;;;;;;;;5224237;28;9610;-69
2023/04/22 07:51:50;;;;;;;;;1.75;1.75;;;;;;;;5207603;28;8805;-69
2023/04/22 07:54:21;;;;;;;;;0.50;0.50;;;;;;;;5224204;28;8770;-70
2023/04/22 07:56:52;;;;;;;;;26.00;26.00;;;;;;;;5224919;28;8818;-69
2023/04/22 07:59:24;;;;;;;;;0.00;0.00;;;;;;;;5223945;28;8773;-69
2023/04/22 08:02:14;;;;;;;;;0.00;0.00;;;;;;;;5210351;28;8781;-69
2023/04/22 08:04:44;;;;;;;;;0.00;0.00;;;;;;;;5224979;28;8762;-69
2023/04/22 08:07:15;;;;;;;;;0.00;0.00;;;;;;;;5223569;28;8817;-69
2023/04/22 08:09:46;;;;;;;;;1.00;1.00;;;;;;;;5224044;28;11471;-70
2023/04/22 08:12:17;;;;;;;;;0.00;0.00;;;;;;;;5224972;28;8860;-69
2023/04/22 08:14:48;;;;;;;;;18.20;18.20;;;;;;;;5207275;28;8774;-69
2023/04/22 08:17:20;;;;;;;;;0.00;0.00;;;;;;;;5190999;28;8813;-69
2023/04/22 08:19:51;;;;;;;;;1.00;1.00;;;;;;;;5223706;28;8841;-69
2023/04/22 08:22:22;;;;;;;;;0.00;0.00;;;;;;;;5207389;28;8814;-69
2023/04/22 08:24:53;;;;;;;;;0.00;0.00;;;;;;;;5223734;28;11456;-69
2023/04/22 08:27:24;;;;;;;;;0.00;0.00;;;;;;;;5223712;28;8831;-69
2023/04/22 08:29:55;;;;;;;;;0.00;0.00;;;;;;;;5224492;28;8803;-69
2023/04/22 08:32:26;;;;;;;;;0.00;0.00;;;;;;;;5211013;28;8828;-69
2023/04/22 08:34:57;;;;;;;;;0.00;0.00;;;;;;;;5228238;28;9657;-70
2023/04/22 08:37:28;;;;;;;;;15.25;15.25;;;;;;;;5227214;28;8790;-67
2023/04/22 08:39:59;;;;;;;;;3.25;3.25;;;;;;;;5194431;28;8797;-68
2023/04/22 08:42:30;;;;;;;;;1.33;1.33;;;;;;;;5228288;28;8798;-68
2023/04/22 08:45:01;;;;;;;;;1.00;1.00;;;;;;;;5227749;28;11056;-68
2023/04/22 08:47:37;;;;;;;;;0.00;0.00;;;;;;;;5210884;28;12304;-68
2023/04/22 08:50:08;;;;;;;;;0.00;0.00;;;;;;;;5210432;28;8802;-67
2023/04/22 08:52:41;;;;;;;;;2.00;2.00;;;;;;;;5193745;28;8797;-68
2023/04/22 08:55:12;;;;;;;;;0.00;0.00;;;;;;;;5210115;28;8802;-68
2023/04/22 08:57:43;;;;;;;;;0.25;0.25;;;;;;;;5226790;28;8952;-68
2023/04/22 09:00:14;;;;;;;;;0.50;0.50;;;;;;;;5226898;28;8786;-68
2023/04/22 09:02:46;;;;;;;;;0.00;0.00;;;;;;;;5226827;28;8813;-68
2023/04/22 09:05:17;;;;;;;;;0.00;0.00;;;;;;;;5226709;28;8798;-69
2023/04/22 09:07:48;;;;;;;;;0.00;0.00;;;;;;;;5227604;28;8829;-69
2023/04/22 09:10:18;;;;;;;;;0.00;0.00;;;;;;;;5227991;28;8808;-68
2023/04/22 09:12:50;;;;;;;;;3.50;3.50;;;;;;;;5226469;28;8836;-68
2023/04/22 09:15:21;;;;;;;;;0.75;0.75;;;;;;;;5226456;28;8813;-68
2023/04/22 09:17:52;;;;;;;;;5.25;5.25;;;;;;;;5227348;28;8821;-68
2023/04/22 09:20:27;;;;;;;;;0.00;0.00;;;;;;;;5226191;28;8789;-68
2023/04/22 09:23:02;;;;;;;;;0.00;0.00;;;;;;;;5210022;28;8793;-68
2023/04/22 09:25:34;;;;;;;;;35.20;32.80;;;;;;;;5226249;28;8817;-68
2023/04/22 09:28:10;;;;;;;;;5.25;5.25;;;;;;;;5226095;28;8794;-68
2023/04/22 09:30:43;;;;;;;;;0.00;0.00;;;;;;;;5226314;28;8803;-68
2023/04/22 09:33:16;;;;;;;;;0.50;0.50;;;;;;;;5209660;28;8785;-68
2023/04/22 09:35:47;;;;;;;;;12.80;12.80;;;;;;;;5226994;28;9536;-69
2023/04/22 09:38:19;;;;;;;;;3.00;3.00;;;;;;;;5225759;28;8859;-68
2023/04/22 09:40:50;;;;;;;;;0.00;0.00;;;;;;;;5226667;28;8794;-68
2023/04/22 09:43:21;;;;;;;;;1.00;1.00;;;;;;;;5225984;28;8786;-68
2023/04/22 09:45:52;;;;;;;;;1.00;1.00;;;;;;;;5227021;28;8766;-69
2023/04/22 09:48:23;;;;;;;;;0.00;0.00;;;;;;;;5225794;28;8906;-69
2023/04/22 09:50:54;;;;;;;;;0.33;0.33;;;;;;;;5227066;28;8773;-69
2023/04/22 09:53:25;;;;;;;;;5.75;5.75;;;;;;;;5226870;28;8765;-68
2023/04/22 09:55:56;;;;;;;;;5.00;5.00;;;;;;;;5227345;28;8771;-68
2023/04/22 09:58:27;;;;;;;;;0.00;0.00;;;;;;;;5227221;28;8920;-68
2023/04/22 10:00:58;;;;;;;;;0.00;0.00;;;;;;;;5227143;28;8904;-68
2023/04/22 10:03:47;;;;;;;;;0.25;0.25;;;;;;;;5225388;28;8785;-68
2023/04/22 10:06:19;;;;;;;;;0.00;0.00;;;;;;;;5225544;28;8810;-68
2023/04/22 10:08:50;;;;;;;;;0.00;0.00;;;;;;;;5225320;28;8805;-68
2023/04/22 10:11:20;;;;;;;;;1.00;1.00;;;;;;;;5225362;28;8770;-68
2023/04/22 10:13:51;;;;;;;;;0.00;0.00;;;;;;;;5225218;28;11485;-68
2023/04/22 10:16:23;;;;;;;;;0.75;0.75;;;;;;;;5225081;28;8858;-68
2023/04/22 10:18:55;;;;;;;;;2.00;2.00;;;;;;;;5225307;28;8781;-68
2023/04/22 10:21:28;;;;;;;;;10.50;10.50;;;;;;;;5226117;28;8841;-68
2023/04/22 10:23:59;;;;;;;;;76.75;73.00;;;;;;;;5208271;28;8793;-68
2023/04/22 10:26:38;;;;;;;;;14.75;14.75;;;;;;;;5208473;28;8817;-68
2023/04/22 10:29:15;;;;;;;;;22.20;22.20;;;;;;;;5208554;28;8789;-68
2023/04/22 10:31:55;;;;;;;;;2.00;2.00;;;;;;;;5226820;28;9562;-68
2023/04/22 10:34:28;;;;;;;;;1.50;1.50;;;;;;;;5224859;28;8806;-68
2023/04/22 10:37:12;;;;;;;;;0.00;0.00;;;;;;;;5224579;28;8806;-68
2023/04/22 10:40:07;;;;;;;;;1.00;1.00;;;;;;;;5226136;28;8920;-68
2023/04/22 10:43:02;;;;;;;;;0.00;0.00;;;;;;;;5224704;28;8805;-68
2023/04/22 10:45:35;;;;;;;;;2.25;2.25;;;;;;;;5225819;28;9619;-68
2023/04/22 10:48:06;;;;;;;;;6.50;6.50;;;;;;;;5225955;28;8821;-68
2023/04/22 10:50:38;;;;;;;;;8.75;8.75;;;;;;;;5224633;28;8780;-68
2023/04/22 10:53:28;;;;;;;;;0.75;0.75;;;;;;;;5225358;28;9820;-68
2023/04/22 10:56:00;;;;;;;;;0.00;0.00;;;;;;;;5225597;28;9485;-68
2023/04/22 10:58:35;;;;;;;;;0.50;0.50;;;;;;;;5208359;28;9010;-68
2023/04/22 11:01:13;;;;;;;;;1.00;1.00;;;;;;;;5224224;28;8823;-68
2023/04/22 11:03:44;;;;;;;;;0.00;0.00;;;;;;;;5224531;28;8928;-68
2023/04/22 11:06:17;;;;;;;;;1.75;1.75;;;;;;;;5207948;28;8927;-68
2023/04/22 11:08:48;;;;;;;;;4.50;4.50;;;;;;;;5225603;28;8797;-68
2023/04/22 11:11:19;;;;;;;;;0.00;0.00;;;;;;;;5225356;28;8796;-68
2023/04/22 11:13:50;;;;;;;;;0.75;0.75;;;;;;;;5225791;28;8805;-68
2023/04/22 11:16:23;;;;;;;;;0.25;0.25;;;;;;;;5224426;28;8810;-68
2023/04/22 11:18:54;;;;;;;;;0.00;0.00;;;;;;;;5225563;28;8932;-68
2023/04/22 11:21:26;;;;;;;;;0.00;0.00;;;;;;;;5224138;28;8765;-68
2023/04/22 11:24:01;;;;;;;;;0.00;0.00;;;;;;;;5208118;28;8769;-68
2023/04/22 11:26:35;;;;;;;;;8.25;8.25;;;;;;;;5224225;28;8998;-68
2023/04/22 11:29:07;;;;;;;;;0.75;0.75;;;;;;;;5224038;28;8859;-69
2023/04/22 11:31:44;;;;;;;;;0.00;0.00;;;;;;;;5208003;28;8800;-69
2023/04/22 11:34:16;;;;;;;;;1.00;1.00;;;;;;;;5207154;28;9547;-69
2023/04/22 11:36:47;;;;;;;;;32.40;31.20;;;;;;;;5225084;28;8793;-69
2023/04/22 11:39:19;;;;;;;;;2.00;2.00;;;;;;;;5207648;28;8851;-69
2023/04/22 11:42:08;;;;;;;;;25.00;25.00;;;;;;;;5210301;28;8766;-69
2023/04/22 11:44:39;;;;;;;;;1.00;1.00;;;;;;;;5225274;28;8842;-68
2023/04/22 11:47:29;;;;;;;;;1.00;1.00;;;;;;;;5241076;28;9719;-71
2023/04/22 11:50:03;;;;;;;;;0.00;0.00;;;;;;;;5244152;28;9525;-70
2023/04/22 11:52:46;;;;;;;;;22.50;21.75;;;;;;;;5244741;28;8794;-70
2023/04/22 11:55:25;;;;;;;;;6.25;6.25;;;;;;;;5228195;28;8783;-71
2023/04/22 11:57:58;;;;;;;;;0.25;0.25;;;;;;;;5233151;28;8920;-69
2023/04/22 12:00:31;;;;;;;;;0.00;0.00;;;;;;;;5223816;28;8938;-69
2023/04/22 12:03:06;;;;;;;;;6.00;6.00;;;;;;;;5224294;28;8821;-68
2023/04/22 12:05:39;;;;;;;;;26.20;26.20;;;;;;;;5225399;28;8864;-68
2023/04/22 12:08:11;;;;;;;;;9.50;9.50;;;;;;;;5211085;28;8797;-68
2023/04/22 12:10:46;;;;;;;;;0.50;0.50;;;;;;;;5227789;28;8770;-69
2023/04/22 12:13:18;;;;;;;;;0.00;0.00;;;;;;;;5228521;28;8790;-72
2023/04/22 12:15:52;;;;;;;;;0.00;0.00;;;;;;;;5232519;28;8888;-70
2023/04/22 12:18:34;;;;;;;;;0.75;0.75;;;;;;;;5227716;28;8814;-70
2023/04/22 12:21:05;;;;;;;;;0.00;0.00;;;;;;;;5228878;28;8781;-70
2023/04/22 12:23:41;;;;;;;;;0.00;0.00;;;;;;;;5211038;28;9481;-71
2023/04/22 12:26:12;;;;;;;;;23.80;23.80;;;;;;;;5228989;28;8774;-69
2023/04/22 12:28:44;;;;;;;;;0.50;0.50;;;;;;;;5225687;28;8831;-69
2023/04/22 12:31:15;;;;;;;;;1.50;1.50;;;;;;;;5205865;28;8793;-69
2023/04/22 12:33:47;;;;;;;;;0.50;0.50;;;;;;;;5230690;28;8848;-72
2023/04/22 12:36:36;;;;;;;;;3.75;3.75;;;;;;;;5231106;28;8836;-69
2023/04/22 12:39:09;;;;;;;;;18.80;18.60;;;;;;;;5213571;28;8787;-70
2023/04/22 12:41:40;;;;;;;;;20.80;20.80;;;;;;;;5239641;28;9498;-68
2023/04/22 12:44:11;;;;;;;;;0.00;0.00;;;;;;;;5248544;28;9523;-69
2023/04/22 12:46:42;;;;;;;;;0.75;0.75;;;;;;;;5242872;28;8803;-68
2023/04/22 12:49:13;;;;;;;;;0.00;0.00;;;;;;;;5219619;28;8821;-68
2023/04/22 12:51:44;;;;;;;;;2.00;2.00;;;;;;;;5227932;28;8833;-68
2023/04/22 12:54:15;;;;;;;;;0.00;0.00;;;;;;;;5213439;28;8829;-68
2023/04/22 12:56:46;;;;;;;;;0.33;0.33;;;;;;;;5245175;28;8787;-68
2023/04/22 12:59:18;;;;;;;;;2.00;2.00;;;;;;;;5239706;28;11387;-69
2023/04/22 13:01:49;;;;;;;;;0.50;0.50;;;;;;;;5228605;28;8781;-68
2023/04/22 13:04:20;;;;;;;;;0.00;0.00;;;;;;;;5225387;28;8828;-70
2023/04/22 13:06:55;;;;;;;;;1.00;1.00;;;;;;;;5216771;28;9553;-69
2023/04/22 13:09:26;;;;;;;;;0.00;0.00;;;;;;;;5243014;28;11450;-67
2023/04/22 13:11:57;;;;;;;;;2.00;2.00;;;;;;;;5237458;28;8786;-67
2023/04/22 13:14:28;;;;;;;;;32.20;30.60;;;;;;;;5227347;28;8920;-68
2023/04/22 13:16:58;;;;;;;;;2.00;2.00;;;;;;;;5216564;28;9673;-68
2023/04/22 13:19:30;;;;;;;;;0.00;0.00;;;;;;;;5235578;28;8837;-68
2023/04/22 13:22:19;;;;;;;;;0.00;0.00;;;;;;;;5227983;28;8786;-67
2023/04/22 13:24:50;;;;;;;;;0.00;0.00;;;;;;;;5247205;28;8815;-67
2023/04/22 13:27:21;;;;;;;;;2.00;2.00;;;;;;;;5247017;28;8823;-67
2023/04/22 13:29:52;;;;;;;;;0.00;0.00;;;;;;;;5241734;28;8883;-68
2023/04/22 13:32:24;;;;;;;;;1.50;1.50;;;;;;;;5213391;28;8819;-68
2023/04/22 13:34:55;;;;;;;;;0.00;0.00;;;;;;;;5242808;28;8832;-67
2023/04/22 13:37:26;;;;;;;;;1.00;1.00;;;;;;;;5226284;28;8789;-68
2023/04/22 13:39:57;;;;;;;;;0.00;0.00;;;;;;;;5220373;28;10744;-67
2023/04/22 13:42:46;;;;;;;;;0.50;0.50;;;;;;;;5247027;28;8868;-68
2023/04/22 13:45:17;;;;;;;;;1.33;1.33;;;;;;;;5247546;28;8794;-70
2023/04/22 13:47:47;;;;;;;;;14.00;14.00;;;;;;;;5221027;28;11541;-70
2023/04/22 13:50:18;;;;;;;;;3.00;3.00;;;;;;;;5230345;28;8806;-70
2023/04/22 13:52:50;;;;;;;;;2.50;2.50;;;;;;;;5242504;28;8802;-68
2023/04/22 13:55:40;;;;;;;;;0.75;0.75;;;;;;;;5241007;28;8933;-68
2023/04/22 13:58:11;;;;;;;;;1.00;1.00;;;;;;;;5227930;28;8811;-68
2023/04/22 14:00:42;;;;;;;;;0.00;0.00;;;;;;;;5229954;28;8799;-68
2023/04/22 14:03:13;;;;;;;;;2.00;2.00;;;;;;;;5247193;28;12174;-67
2023/04/22 14:05:44;;;;;;;;;0.50;0.50;;;;;;;;5208415;28;9671;-67
2023/04/22 14:08:15;;;;;;;;;1.00;1.00;;;;;;;;5236000;28;8949;-67
2023/04/22 14:10:46;;;;;;;;;4.00;4.00;;;;;;;;5245354;28;9604;-67
2023/04/22 14:13:17;;;;;;;;;3.33;3.33;;;;;;;;5224732;28;8805;-67
2023/04/22 14:15:49;;;;;;;;;0.00;0.00;;;;;;;;5231842;28;11003;-68
2023/04/22 14:18:22;;;;;;;;;0.00;0.00;;;;;;;;5232870;28;9594;-68
2023/04/22 14:20:53;;;;;;;;;9.25;9.25;;;;;;;;5226621;28;8798;-68
2023/04/22 14:23:24;;;;;;;;;4.00;4.00;;;;;;;;5228998;28;8844;-67
2023/04/22 14:25:55;;;;;;;;;0.00;0.00;;;;;;;;5237768;28;8826;-67
2023/04/22 14:28:45;;;;;;;;;0.00;0.00;;;;;;;;5245357;28;8802;-67
2023/04/22 14:31:16;;;;;;;;;0.00;0.00;;;;;;;;5244923;28;8817;-67
2023/04/22 14:33:47;;;;;;;;;0.00;0.00;;;;;;;;5230090;28;9522;-67
2023/04/22 14:36:18;;;;;;;;;0.00;0.00;;;;;;;;5226564;28;8980;-67
2023/04/22 14:38:49;;;;;;;;;0.00;0.00;;;;;;;;5239327;28;8802;-68
2023/04/22 14:41:20;;;;;;;;;0.00;0.00;;;;;;;;5231119;28;8785;-68
2023/04/22 14:43:51;;;;;;;;;3.75;3.75;;;;;;;;5244586;28;8881;-68
2023/04/22 14:46:22;;;;;;;;;0.00;0.00;;;;;;;;5233508;28;9631;-68
2023/04/22 14:48:53;;;;;;;;;0.50;0.50;;;;;;;;5224611;28;8818;-70
2023/04/22 14:51:24;;;;;;;;;12.75;12.75;;;;;;;;5216539;28;8829;-69
2023/04/22 14:53:55;;;;;;;;;67.50;62.50;;;;;;;;5242690;28;8803;-68
2023/04/22 14:56:26;;;;;;;;;23.00;23.00;;;;;;;;5214165;28;11561;-67
2023/04/22 14:58:57;;;;;;;;;24.00;24.00;;;;;;;;5224366;28;8786;-67
2023/04/22 15:01:47;;;;;;;;;11.75;11.50;;;;;;;;5237846;28;8799;-67
2023/04/22 15:04:18;;;;;;;;;18.00;18.00;;;;;;;;5227771;28;8797;-67
2023/04/22 15:06:50;;;;;;;;;15.00;15.00;;;;;;;;5241556;28;8825;-68
2023/04/22 15:09:20;;;;;;;;;13.50;13.50;;;;;;;;5228176;28;8797;-68
2023/04/22 15:12:10;;;;;;;;;8.00;8.00;;;;;;;;5229572;28;8837;-68
2023/04/22 15:14:41;;;;;;;;;17.75;17.50;;;;;;;;5236701;28;8798;-68
2023/04/22 15:17:12;;;;;;;;;21.33;21.00;;;;;;;;5224104;28;8956;-68
2023/04/22 15:19:43;;;;;;;;;10.75;10.75;;;;;;;;5232806;28;11483;-67
2023/04/22 15:22:14;;;;;;;;;14.50;14.50;;;;;;;;5230824;28;8910;-68
2023/04/22 15:25:05;;;;;;;;;9.75;9.75;;;;;;;;5236841;28;8834;-68
2023/04/22 15:27:36;;;;;;;;;11.75;11.25;;;;;;;;5224004;28;8813;-68
2023/04/22 15:30:09;;;;;;;;;17.75;17.75;;;;;;;;5229826;28;9553;-68
2023/04/22 15:32:43;;;;;;;;;18.50;16.75;;;;;;;;5230947;28;8832;-68
2023/04/22 15:35:14;;;;;;;;;21.00;21.00;;;;;;;;5213277;28;8864;-68